sensor_id;sensor_type;location;lat;lon;timestamp;temperature;humidity
1978;DHT22;989;53.016;8.346;2022-10-30T00:00:40;14.50;99.90
1978;DHT22;989;53.016;8.346;2022-10-30T00:03:08;14.40;99.90
1978;DHT22;989;53.016;8.346;2022-10-30T00:05:35;14.40;99.90
1978;DHT22;989;53.016;8.346;2022-10-30T00:08:01;14.50;99.90
1978;DHT22;989;53.016;8.346;2022-10-30T00:10:26;14.40;99.90
1978;DHT22;989;53.016;8.346;2022-10-30T00:12:52;14.40;99.90
1978;DHT22;989;53.016;8.346;2022-10-30T00:15:19;14.40;99.90
1978;DHT22;989;53.016;8.346;2022-10-30T00:17:45;14.30;99.90
1978;DHT22;989;53.016;8.346;2022-10-30T00:20:10;14.30;99.90
1978;DHT22;989;53.016;8.346;2022-10-30T00:22:36;14.30;99.90
1978;DHT22;989;53.016;8.346;2022-10-30T00:25:03;14.30;99.90
1978;DHT22;989;53.016;8.346;2022-10-30T00:27:29;14.30;99.90
1978;DHT22;989;53.016;8.346;2022-10-30T00:29:55;14.30;99.90
1978;DHT22;989;53.016;8.346;2022-10-30T00:32:20;14.30;99.90
1978;DHT22;989;53.016;8.346;2022-10-30T00:34:46;14.30;99.90
1978;DHT22;989;53.016;8.346;2022-10-30T00:37:12;14.20;99.90
1978;DHT22;989;53.016;8.346;2022-10-30T00:39:37;14.20;99.90
1978;DHT22;989;53.016;8.346;2022-10-30T00:42:03;14.10;99.90
1978;DHT22;989;53.016;8.346;2022-10-30T00:47:25;14.00;99.90
1978;DHT22;989;53.016;8.346;2022-10-30T00:50:00;13.90;99.90
1978;DHT22;989;53.016;8.346;2022-10-30T00:52:42;14.00;99.90
1978;DHT22;989;53.016;8.346;2022-10-30T00:55:18;13.90;99.90
1978;DHT22;989;53.016;8.346;2022-10-30T00:57:51;13.90;99.90
1978;DHT22;989;53.016;8.346;2022-10-30T01:00:20;13.90;99.90
1978;DHT22;989;53.016;8.346;2022-10-30T01:02:46;13.90;99.90
1978;DHT22;989;53.016;8.346;2022-10-30T01:05:15;13.90;99.90
1978;DHT22;989;53.016;8.346;2022-10-30T01:07:43;13.90;99.90
1978;DHT22;989;53.016;8.346;2022-10-30T01:10:09;14.00;99.90
1978;DHT22;989;53.016;8.346;2022-10-30T01:12:36;14.00;99.90
1978;DHT22;989;53.016;8.346;2022-10-30T01:15:03;14.00;99.90
1978;DHT22;989;53.016;8.346;2022-10-30T01:26:18;13.80;99.90
1978;DHT22;989;53.016;8.346;2022-10-30T01:35:13;14.00;99.90
1978;DHT22;989;53.016;8.346;2022-10-30T01:38:02;14.00;99.90
1978;DHT22;989;53.016;8.346;2022-10-30T01:40:32;14.10;99.90
1978;DHT22;989;53.016;8.346;2022-10-30T01:42:58;14.10;99.90
1978;DHT22;989;53.016;8.346;2022-10-30T01:51:49;14.10;99.90
1978;DHT22;989;53.016;8.346;2022-10-30T01:57:39;14.10;99.90
1978;DHT22;989;53.016;8.346;2022-10-30T02:00:08;14.10;99.90
1978;DHT22;989;53.016;8.346;2022-10-30T02:02:38;14.10;99.90
1978;DHT22;989;53.016;8.346;2022-10-30T02:05:08;14.10;99.90
1978;DHT22;989;53.016;8.346;2022-10-30T02:07:35;14.10;99.90
1978;DHT22;989;53.016;8.346;2022-10-30T02:10:00;14.10;99.90
1978;DHT22;989;53.016;8.346;2022-10-30T02:12:27;14.10;99.90
1978;DHT22;989;53.016;8.346;2022-10-30T02:14:56;14.10;99.90
1978;DHT22;989;53.016;8.346;2022-10-30T02:17:24;14.10;99.20
1978;DHT22;989;53.016;8.346;2022-10-30T02:19:50;14.10;98.50
1978;DHT22;989;53.016;8.346;2022-10-30T02:22:16;14.00;99.10
1978;DHT22;989;53.016;8.346;2022-10-30T02:24:43;14.00;98.20
1978;DHT22;989;53.016;8.346;2022-10-30T02:27:09;14.00;98.50
1978;DHT22;989;53.016;8.346;2022-10-30T02:29:35;13.90;99.00
1978;DHT22;989;53.016;8.346;2022-10-30T02:32:01;14.00;99.20
1978;DHT22;989;53.016;8.346;2022-10-30T02:34:27;13.90;98.50
1978;DHT22;989;53.016;8.346;2022-10-30T02:36:53;14.00;98.80
1978;DHT22;989;53.016;8.346;2022-10-30T02:39:18;14.00;98.10
1978;DHT22;989;53.016;8.346;2022-10-30T02:41:46;14.10;97.20
1978;DHT22;989;53.016;8.346;2022-10-30T02:44:12;14.10;95.80
1978;DHT22;989;53.016;8.346;2022-10-30T02:46:38;14.20;94.70
1978;DHT22;989;53.016;8.346;2022-10-30T02:49:04;14.20;93.80
1978;DHT22;989;53.016;8.346;2022-10-30T02:51:30;14.20;92.90
1978;DHT22;989;53.016;8.346;2022-10-30T02:53:58;14.30;91.90
1978;DHT22;989;53.016;8.346;2022-10-30T02:56:24;14.30;90.80
1978;DHT22;989;53.016;8.346;2022-10-30T02:58:51;14.30;90.10
1978;DHT22;989;53.016;8.346;2022-10-30T03:01:18;14.30;89.40
1978;DHT22;989;53.016;8.346;2022-10-30T03:03:45;14.20;88.60
1978;DHT22;989;53.016;8.346;2022-10-30T03:06:13;14.20;89.80
1978;DHT22;989;53.016;8.346;2022-10-30T03:08:41;14.20;89.10
1978;DHT22;989;53.016;8.346;2022-10-30T03:11:10;14.20;86.40
1978;DHT22;989;53.016;8.346;2022-10-30T03:13:37;14.20;85.90
1978;DHT22;989;53.016;8.346;2022-10-30T03:16:17;14.10;87.30
1978;DHT22;989;53.016;8.346;2022-10-30T03:18:46;14.10;86.30
1978;DHT22;989;53.016;8.346;2022-10-30T03:21:14;14.10;87.20
1978;DHT22;989;53.016;8.346;2022-10-30T03:23:42;14.10;87.70
1978;DHT22;989;53.016;8.346;2022-10-30T03:26:08;14.10;86.10
1978;DHT22;989;53.016;8.346;2022-10-30T03:28:34;14.10;87.70
1978;DHT22;989;53.016;8.346;2022-10-30T03:31:00;14.10;84.60
1978;DHT22;989;53.016;8.346;2022-10-30T03:33:31;14.10;84.60
1978;DHT22;989;53.016;8.346;2022-10-30T03:35:57;14.10;85.80
1978;DHT22;989;53.016;8.346;2022-10-30T03:38:23;14.10;85.00
1978;DHT22;989;53.016;8.346;2022-10-30T03:40:49;14.10;84.40
1978;DHT22;989;53.016;8.346;2022-10-30T03:43:15;13.90;83.20
1978;DHT22;989;53.016;8.346;2022-10-30T03:45:48;13.90;85.20
1978;DHT22;989;53.016;8.346;2022-10-30T03:48:16;13.80;87.30
1978;DHT22;989;53.016;8.346;2022-10-30T03:50:42;13.70;87.00
1978;DHT22;989;53.016;8.346;2022-10-30T03:53:08;13.60;90.30
1978;DHT22;989;53.016;8.346;2022-10-30T03:55:33;13.50;91.80
1978;DHT22;989;53.016;8.346;2022-10-30T03:57:59;13.40;91.50
1978;DHT22;989;53.016;8.346;2022-10-30T04:00:25;13.30;92.20
1978;DHT22;989;53.016;8.346;2022-10-30T04:02:51;13.30;93.60
1978;DHT22;989;53.016;8.346;2022-10-30T04:05:18;13.10;94.10
1978;DHT22;989;53.016;8.346;2022-10-30T04:07:45;13.10;95.70
1978;DHT22;989;53.016;8.346;2022-10-30T04:10:11;13.00;96.70
1978;DHT22;989;53.016;8.346;2022-10-30T04:12:38;13.00;97.20
1978;DHT22;989;53.016;8.346;2022-10-30T04:15:05;12.80;97.50
1978;DHT22;989;53.016;8.346;2022-10-30T04:17:32;12.70;98.80
1978;DHT22;989;53.016;8.346;2022-10-30T04:19:58;12.70;99.90
1978;DHT22;989;53.016;8.346;2022-10-30T04:22:24;12.50;99.90
1978;DHT22;989;53.016;8.346;2022-10-30T04:24:50;12.40;99.90
1978;DHT22;989;53.016;8.346;2022-10-30T04:27:16;12.40;99.90
1978;DHT22;989;53.016;8.346;2022-10-30T04:29:42;12.30;99.90
1978;DHT22;989;53.016;8.346;2022-10-30T04:32:08;12.30;99.90
1978;DHT22;989;53.016;8.346;2022-10-30T04:34:35;12.20;99.90
1978;DHT22;989;53.016;8.346;2022-10-30T04:37:01;12.20;99.90
1978;DHT22;989;53.016;8.346;2022-10-30T04:39:26;12.20;99.90
1978;DHT22;989;53.016;8.346;2022-10-30T04:41:52;12.20;99.90
1978;DHT22;989;53.016;8.346;2022-10-30T04:44:17;12.10;99.90
1978;DHT22;989;53.016;8.346;2022-10-30T04:46:43;12.10;99.90
1978;DHT22;989;53.016;8.346;2022-10-30T04:49:09;12.10;99.90
1978;DHT22;989;53.016;8.346;2022-10-30T04:51:34;12.10;99.90
1978;DHT22;989;53.016;8.346;2022-10-30T04:54:00;12.10;99.90
1978;DHT22;989;53.016;8.346;2022-10-30T04:56:26;12.10;99.90
1978;DHT22;989;53.016;8.346;2022-10-30T04:58:51;12.10;99.90
1978;DHT22;989;53.016;8.346;2022-10-30T05:01:18;12.10;99.90
1978;DHT22;989;53.016;8.346;2022-10-30T05:03:43;12.10;99.90
1978;DHT22;989;53.016;8.346;2022-10-30T05:06:20;12.00;99.90
1978;DHT22;989;53.016;8.346;2022-10-30T05:08:47;12.10;99.90
1978;DHT22;989;53.016;8.346;2022-10-30T05:11:13;12.10;99.90
1978;DHT22;989;53.016;8.346;2022-10-30T05:13:39;12.10;99.90
1978;DHT22;989;53.016;8.346;2022-10-30T05:16:04;12.10;99.90
1978;DHT22;989;53.016;8.346;2022-10-30T05:18:30;12.10;99.90
1978;DHT22;989;53.016;8.346;2022-10-30T05:20:56;11.90;99.90
1978;DHT22;989;53.016;8.346;2022-10-30T05:23:21;11.80;99.90
1978;DHT22;989;53.016;8.346;2022-10-30T05:25:47;11.60;99.90
1978;DHT22;989;53.016;8.346;2022-10-30T05:28:13;11.60;99.90
1978;DHT22;989;53.016;8.346;2022-10-30T05:30:38;11.60;99.90
1978;DHT22;989;53.016;8.346;2022-10-30T05:33:06;11.60;99.90
1978;DHT22;989;53.016;8.346;2022-10-30T05:35:34;11.60;99.90
1978;DHT22;989;53.016;8.346;2022-10-30T05:38:02;11.60;99.90
1978;DHT22;989;53.016;8.346;2022-10-30T05:40:31;11.50;99.90
1978;DHT22;989;53.016;8.346;2022-10-30T05:42:57;11.60;99.90
1978;DHT22;989;53.016;8.346;2022-10-30T05:45:23;11.50;99.90
1978;DHT22;989;53.016;8.346;2022-10-30T05:47:56;11.50;99.90
1978;DHT22;989;53.016;8.346;2022-10-30T05:50:24;11.40;99.90
1978;DHT22;989;53.016;8.346;2022-10-30T05:53:00;11.40;99.90
1978;DHT22;989;53.016;8.346;2022-10-30T05:55:28;11.40;99.90
1978;DHT22;989;53.016;8.346;2022-10-30T05:58:00;11.30;99.90
1978;DHT22;989;53.016;8.346;2022-10-30T06:00:29;11.20;99.90
1978;DHT22;989;53.016;8.346;2022-10-30T06:03:00;11.30;99.90
1978;DHT22;989;53.016;8.346;2022-10-30T06:05:29;11.30;99.90
1978;DHT22;989;53.016;8.346;2022-10-30T06:07:55;11.30;99.90
1978;DHT22;989;53.016;8.346;2022-10-30T06:10:22;11.30;99.90
1978;DHT22;989;53.016;8.346;2022-10-30T06:12:56;11.30;99.90
1978;DHT22;989;53.016;8.346;2022-10-30T06:15:26;11.40;99.90
1978;DHT22;989;53.016;8.346;2022-10-30T06:17:53;11.40;99.90
1978;DHT22;989;53.016;8.346;2022-10-30T06:20:21;11.50;99.90
1978;DHT22;989;53.016;8.346;2022-10-30T06:23:02;11.50;99.90
1978;DHT22;989;53.016;8.346;2022-10-30T06:25:31;11.40;99.90
1978;DHT22;989;53.016;8.346;2022-10-30T06:27:58;11.40;99.90
1978;DHT22;989;53.016;8.346;2022-10-30T06:30:25;11.40;99.90
1978;DHT22;989;53.016;8.346;2022-10-30T06:32:58;11.40;99.90
1978;DHT22;989;53.016;8.346;2022-10-30T06:35:25;11.40;99.90
1978;DHT22;989;53.016;8.346;2022-10-30T06:37:52;11.40;99.90
1978;DHT22;989;53.016;8.346;2022-10-30T06:40:18;11.40;99.90
1978;DHT22;989;53.016;8.346;2022-10-30T06:42:49;11.50;99.90
1978;DHT22;989;53.016;8.346;2022-10-30T06:45:16;11.50;99.90
1978;DHT22;989;53.016;8.346;2022-10-30T06:47:43;11.50;99.90
1978;DHT22;989;53.016;8.346;2022-10-30T06:50:12;11.40;99.90
1978;DHT22;989;53.016;8.346;2022-10-30T06:52:39;11.40;99.90
1978;DHT22;989;53.016;8.346;2022-10-30T06:55:05;11.50;99.90
1978;DHT22;989;53.016;8.346;2022-10-30T06:57:31;11.50;99.90
1978;DHT22;989;53.016;8.346;2022-10-30T06:59:57;11.60;99.90
1978;DHT22;989;53.016;8.346;2022-10-30T07:02:23;11.60;99.90
1978;DHT22;989;53.016;8.346;2022-10-30T07:04:49;11.70;99.90
1978;DHT22;989;53.016;8.346;2022-10-30T07:07:15;11.60;99.90
1978;DHT22;989;53.016;8.346;2022-10-30T07:09:41;11.70;99.90
1978;DHT22;989;53.016;8.346;2022-10-30T07:12:08;11.80;99.90
1978;DHT22;989;53.016;8.346;2022-10-30T07:14:34;11.90;99.90
1978;DHT22;989;53.016;8.346;2022-10-30T07:17:00;12.10;99.90
1978;DHT22;989;53.016;8.346;2022-10-30T07:19:26;12.20;99.90
1978;DHT22;989;53.016;8.346;2022-10-30T07:21:52;12.30;99.90
1978;DHT22;989;53.016;8.346;2022-10-30T07:24:17;12.40;99.90
1978;DHT22;989;53.016;8.346;2022-10-30T07:26:43;12.50;99.90
1978;DHT22;989;53.016;8.346;2022-10-30T07:29:09;12.60;99.90
1978;DHT22;989;53.016;8.346;2022-10-30T07:31:35;12.70;99.90
1978;DHT22;989;53.016;8.346;2022-10-30T07:34:02;12.80;99.90
1978;DHT22;989;53.016;8.346;2022-10-30T07:36:27;12.80;99.90
1978;DHT22;989;53.016;8.346;2022-10-30T07:38:53;13.00;99.90
1978;DHT22;989;53.016;8.346;2022-10-30T07:41:19;13.10;99.90
1978;DHT22;989;53.016;8.346;2022-10-30T07:43:46;13.20;99.90
1978;DHT22;989;53.016;8.346;2022-10-30T07:46:13;13.20;99.90
1978;DHT22;989;53.016;8.346;2022-10-30T07:48:39;13.30;99.90
1978;DHT22;989;53.016;8.346;2022-10-30T07:51:05;13.50;99.90
1978;DHT22;989;53.016;8.346;2022-10-30T07:53:30;13.60;99.90
1978;DHT22;989;53.016;8.346;2022-10-30T07:55:56;13.70;99.90
1978;DHT22;989;53.016;8.346;2022-10-30T07:58:22;13.80;99.90
1978;DHT22;989;53.016;8.346;2022-10-30T08:00:48;13.90;99.90
1978;DHT22;989;53.016;8.346;2022-10-30T08:03:14;14.10;99.90
1978;DHT22;989;53.016;8.346;2022-10-30T08:05:40;14.20;99.90
1978;DHT22;989;53.016;8.346;2022-10-30T08:08:07;14.40;97.50
1978;DHT22;989;53.016;8.346;2022-10-30T08:10:33;14.50;94.80
1978;DHT22;989;53.016;8.346;2022-10-30T08:12:59;14.60;92.40
1978;DHT22;989;53.016;8.346;2022-10-30T08:15:25;14.80;90.50
1978;DHT22;989;53.016;8.346;2022-10-30T08:17:51;14.80;89.10
1978;DHT22;989;53.016;8.346;2022-10-30T08:20:19;14.90;85.30
1978;DHT22;989;53.016;8.346;2022-10-30T08:22:56;15.00;84.10
1978;DHT22;989;53.016;8.346;2022-10-30T08:25:24;15.10;83.00
1978;DHT22;989;53.016;8.346;2022-10-30T08:30:22;15.30;75.10
1978;DHT22;989;53.016;8.346;2022-10-30T08:32:49;15.50;77.30
1978;DHT22;989;53.016;8.346;2022-10-30T08:35:15;15.60;72.60
1978;DHT22;989;53.016;8.346;2022-10-30T08:37:42;15.70;71.40
1978;DHT22;989;53.016;8.346;2022-10-30T08:40:09;15.80;70.10
1978;DHT22;989;53.016;8.346;2022-10-30T08:42:35;15.90;68.50
1978;DHT22;989;53.016;8.346;2022-10-30T08:45:01;16.00;62.10
1978;DHT22;989;53.016;8.346;2022-10-30T08:47:27;16.10;60.00
1978;DHT22;989;53.016;8.346;2022-10-30T08:49:52;16.10;56.30
1978;DHT22;989;53.016;8.346;2022-10-30T08:52:18;16.10;59.10
1978;DHT22;989;53.016;8.346;2022-10-30T08:54:43;16.30;59.10
1978;DHT22;989;53.016;8.346;2022-10-30T08:57:09;16.40;55.90
1978;DHT22;989;53.016;8.346;2022-10-30T08:59:35;16.50;56.80
1978;DHT22;989;53.016;8.346;2022-10-30T09:02:00;16.50;52.70
1978;DHT22;989;53.016;8.346;2022-10-30T09:04:26;16.60;53.60
1978;DHT22;989;53.016;8.346;2022-10-30T09:06:51;16.70;51.50
1978;DHT22;989;53.016;8.346;2022-10-30T09:09:17;16.90;56.20
1978;DHT22;989;53.016;8.346;2022-10-30T09:11:42;16.90;52.80
1978;DHT22;989;53.016;8.346;2022-10-30T09:14:08;17.00;43.10
1978;DHT22;989;53.016;8.346;2022-10-30T09:16:34;17.10;48.00
1978;DHT22;989;53.016;8.346;2022-10-30T09:18:59;17.20;50.80
1978;DHT22;989;53.016;8.346;2022-10-30T09:21:25;17.30;48.40
1978;DHT22;989;53.016;8.346;2022-10-30T09:23:51;17.40;39.50
1978;DHT22;989;53.016;8.346;2022-10-30T09:26:16;17.50;33.60
1978;DHT22;989;53.016;8.346;2022-10-30T09:28:42;17.50;35.60
1978;DHT22;989;53.016;8.346;2022-10-30T09:31:07;17.50;35.90
1978;DHT22;989;53.016;8.346;2022-10-30T09:33:33;17.60;33.30
1978;DHT22;989;53.016;8.346;2022-10-30T09:35:59;17.60;31.00
1978;DHT22;989;53.016;8.346;2022-10-30T09:38:27;17.80;30.00
1978;DHT22;989;53.016;8.346;2022-10-30T09:41:15;17.90;26.10
1978;DHT22;989;53.016;8.346;2022-10-30T09:44:24;18.10;25.70
1978;DHT22;989;53.016;8.346;2022-10-30T09:47:22;18.30;21.10
1978;DHT22;989;53.016;8.346;2022-10-30T09:50:00;18.50;20.20
1978;DHT22;989;53.016;8.346;2022-10-30T09:52:56;18.60;14.60
1978;DHT22;989;53.016;8.346;2022-10-30T09:58:52;18.60;19.20
1978;DHT22;989;53.016;8.346;2022-10-30T10:02:03;18.90;16.20
1978;DHT22;989;53.016;8.346;2022-10-30T10:04:51;19.10;16.60
1978;DHT22;989;53.016;8.346;2022-10-30T10:07:29;19.30;11.40
1978;DHT22;989;53.016;8.346;2022-10-30T10:10:05;19.20;8.90
1978;DHT22;989;53.016;8.346;2022-10-30T10:12:44;19.30;7.40
1978;DHT22;989;53.016;8.346;2022-10-30T10:15:36;19.60;10.20
1978;DHT22;989;53.016;8.346;2022-10-30T10:18:15;19.60;4.60
1978;DHT22;989;53.016;8.346;2022-10-30T10:20:46;19.80;6.40
1978;DHT22;989;53.016;8.346;2022-10-30T10:23:26;19.90;2.20
1978;DHT22;989;53.016;8.346;2022-10-30T10:25:58;20.20;3.20
1978;DHT22;989;53.016;8.346;2022-10-30T10:28:48;19.90;1.00
1978;DHT22;989;53.016;8.346;2022-10-30T10:31:43;20.00;1.00
1978;DHT22;989;53.016;8.346;2022-10-30T10:34:34;20.00;1.00
1978;DHT22;989;53.016;8.346;2022-10-30T10:43:15;20.60;1.00
1978;DHT22;989;53.016;8.346;2022-10-30T10:45:53;20.30;1.00
1978;DHT22;989;53.016;8.346;2022-10-30T10:49:06;20.40;1.00
1978;DHT22;989;53.016;8.346;2022-10-30T10:52:01;20.60;1.00
1978;DHT22;989;53.016;8.346;2022-10-30T10:54:40;20.60;1.00
1978;DHT22;989;53.016;8.346;2022-10-30T10:57:31;20.50;1.00
1978;DHT22;989;53.016;8.346;2022-10-30T11:00:03;20.60;1.00
1978;DHT22;989;53.016;8.346;2022-10-30T11:02:40;20.60;1.00
1978;DHT22;989;53.016;8.346;2022-10-30T11:05:37;20.70;1.00
1978;DHT22;989;53.016;8.346;2022-10-30T11:08:25;20.90;1.00
1978;DHT22;989;53.016;8.346;2022-10-30T11:11:00;21.10;1.00
1978;DHT22;989;53.016;8.346;2022-10-30T11:13:35;21.40;1.00
1978;DHT22;989;53.016;8.346;2022-10-30T11:16:25;21.70;1.00
1978;DHT22;989;53.016;8.346;2022-10-30T11:19:00;22.00;1.00
1978;DHT22;989;53.016;8.346;2022-10-30T11:21:32;22.30;1.00
1978;DHT22;989;53.016;8.346;2022-10-30T11:23:59;22.50;1.00
1978;DHT22;989;53.016;8.346;2022-10-30T11:26:27;22.60;1.00
1978;DHT22;989;53.016;8.346;2022-10-30T11:28:58;22.90;1.00
1978;DHT22;989;53.016;8.346;2022-10-30T11:31:27;22.90;1.00
1978;DHT22;989;53.016;8.346;2022-10-30T11:36:46;23.10;1.00
1978;DHT22;989;53.016;8.346;2022-10-30T11:39:32;23.30;1.00
1978;DHT22;989;53.016;8.346;2022-10-30T11:42:14;23.00;1.00
1978;DHT22;989;53.016;8.346;2022-10-30T11:44:49;23.00;1.00
1978;DHT22;989;53.016;8.346;2022-10-30T11:47:18;23.20;1.00
1978;DHT22;989;53.016;8.346;2022-10-30T11:49:58;23.10;1.00
1978;DHT22;989;53.016;8.346;2022-10-30T11:52:35;23.00;1.00
1978;DHT22;989;53.016;8.346;2022-10-30T11:55:38;22.70;1.00
1978;DHT22;989;53.016;8.346;2022-10-30T11:58:06;22.30;1.00
1978;DHT22;989;53.016;8.346;2022-10-30T12:00:37;21.80;1.00
1978;DHT22;989;53.016;8.346;2022-10-30T12:03:27;21.60;1.00
1978;DHT22;989;53.016;8.346;2022-10-30T12:06:17;21.60;1.00
1978;DHT22;989;53.016;8.346;2022-10-30T12:11:30;21.50;1.00
1978;DHT22;989;53.016;8.346;2022-10-30T12:13:57;21.60;1.00
1978;DHT22;989;53.016;8.346;2022-10-30T12:16:23;21.70;1.00
1978;DHT22;989;53.016;8.346;2022-10-30T12:18:52;21.70;1.00
1978;DHT22;989;53.016;8.346;2022-10-30T12:21:28;21.60;1.00
1978;DHT22;989;53.016;8.346;2022-10-30T12:24:01;21.50;1.00
1978;DHT22;989;53.016;8.346;2022-10-30T12:26:32;21.50;1.00
1978;DHT22;989;53.016;8.346;2022-10-30T12:29:02;21.60;1.00
1978;DHT22;989;53.016;8.346;2022-10-30T12:37:42;21.70;1.00
1978;DHT22;989;53.016;8.346;2022-10-30T12:40:18;21.80;1.00
1978;DHT22;989;53.016;8.346;2022-10-30T12:43:01;21.70;1.00
1978;DHT22;989;53.016;8.346;2022-10-30T12:45:47;21.70;1.00
1978;DHT22;989;53.016;8.346;2022-10-30T12:48:44;21.90;1.00
1978;DHT22;989;53.016;8.346;2022-10-30T12:51:33;22.00;1.00
1978;DHT22;989;53.016;8.346;2022-10-30T12:54:13;22.10;1.00
1978;DHT22;989;53.016;8.346;2022-10-30T12:56:49;22.00;1.00
1978;DHT22;989;53.016;8.346;2022-10-30T12:59:32;21.80;1.00
1978;DHT22;989;53.016;8.346;2022-10-30T13:05:12;21.60;1.00
1978;DHT22;989;53.016;8.346;2022-10-30T13:11:08;21.60;1.00
1978;DHT22;989;53.016;8.346;2022-10-30T13:13:41;21.70;1.00
1978;DHT22;989;53.016;8.346;2022-10-30T13:16:16;21.60;1.00
1978;DHT22;989;53.016;8.346;2022-10-30T13:18:45;21.70;1.00
1978;DHT22;989;53.016;8.346;2022-10-30T13:23:42;21.50;1.00
1978;DHT22;989;53.016;8.346;2022-10-30T13:29:18;21.50;1.00
1978;DHT22;989;53.016;8.346;2022-10-30T13:37:29;21.50;1.00
1978;DHT22;989;53.016;8.346;2022-10-30T13:43:26;21.30;1.00
1978;DHT22;989;53.016;8.346;2022-10-30T13:46:20;21.30;1.00
1978;DHT22;989;53.016;8.346;2022-10-30T13:49:06;21.30;1.00
1978;DHT22;989;53.016;8.346;2022-10-30T13:52:00;21.30;1.00
1978;DHT22;989;53.016;8.346;2022-10-30T13:57:26;21.30;1.00
1978;DHT22;989;53.016;8.346;2022-10-30T14:00:18;21.10;1.00
1978;DHT22;989;53.016;8.346;2022-10-30T14:03:30;21.00;1.00
1978;DHT22;989;53.016;8.346;2022-10-30T14:06:09;21.20;1.00
1978;DHT22;989;53.016;8.346;2022-10-30T14:09:05;21.20;1.00
1978;DHT22;989;53.016;8.346;2022-10-30T14:11:37;21.30;1.00
1978;DHT22;989;53.016;8.346;2022-10-30T14:17:14;21.40;1.00
1978;DHT22;989;53.016;8.346;2022-10-30T14:22:33;21.00;1.00
1978;DHT22;989;53.016;8.346;2022-10-30T14:24:59;21.00;1.00
1978;DHT22;989;53.016;8.346;2022-10-30T14:27:32;21.10;1.00
1978;DHT22;989;53.016;8.346;2022-10-30T14:29:59;21.10;1.00
1978;DHT22;989;53.016;8.346;2022-10-30T14:39:48;20.90;1.00
1978;DHT22;989;53.016;8.346;2022-10-30T14:42:39;21.00;1.00
1978;DHT22;989;53.016;8.346;2022-10-30T14:51:27;21.00;1.00
1978;DHT22;989;53.016;8.346;2022-10-30T14:54:03;20.80;1.00
1978;DHT22;989;53.016;8.346;2022-10-30T14:56:48;20.40;1.00
1978;DHT22;989;53.016;8.346;2022-10-30T15:04:52;20.10;1.00
1978;DHT22;989;53.016;8.346;2022-10-30T15:07:42;19.70;1.80
1978;DHT22;989;53.016;8.346;2022-10-30T15:10:31;19.30;9.30
1978;DHT22;989;53.016;8.346;2022-10-30T15:13:22;19.10;14.80
1978;DHT22;989;53.016;8.346;2022-10-30T15:15:56;18.90;19.30
1978;DHT22;989;53.016;8.346;2022-10-30T15:18:26;18.70;22.60
1978;DHT22;989;53.016;8.346;2022-10-30T15:20:54;18.50;28.00
1978;DHT22;989;53.016;8.346;2022-10-30T15:23:31;18.40;32.10
1978;DHT22;989;53.016;8.346;2022-10-30T15:26:01;18.10;41.90
1978;DHT22;989;53.016;8.346;2022-10-30T15:28:34;17.90;50.30
1978;DHT22;989;53.016;8.346;2022-10-30T15:31:23;17.70;58.80
1978;DHT22;989;53.016;8.346;2022-10-30T15:33:51;17.60;62.20
1978;DHT22;989;53.016;8.346;2022-10-30T15:36:21;17.40;66.70
1978;DHT22;989;53.016;8.346;2022-10-30T15:41:46;17.30;75.50
1978;DHT22;989;53.016;8.346;2022-10-30T15:44:16;17.10;80.10
1978;DHT22;989;53.016;8.346;2022-10-30T15:46:48;17.00;85.30
1978;DHT22;989;53.016;8.346;2022-10-30T15:49:30;16.90;88.70
1978;DHT22;989;53.016;8.346;2022-10-30T15:52:04;16.80;91.80
1978;DHT22;989;53.016;8.346;2022-10-30T15:54:40;16.70;93.40
1978;DHT22;989;53.016;8.346;2022-10-30T15:57:30;16.60;94.10
1978;DHT22;989;53.016;8.346;2022-10-30T16:00:04;16.50;95.70
1978;DHT22;989;53.016;8.346;2022-10-30T16:02:32;16.40;97.20
1978;DHT22;989;53.016;8.346;2022-10-30T16:04:58;16.20;98.50
1978;DHT22;989;53.016;8.346;2022-10-30T16:07:26;16.10;99.00
1978;DHT22;989;53.016;8.346;2022-10-30T16:10:00;15.90;99.90
1978;DHT22;989;53.016;8.346;2022-10-30T16:12:32;15.90;99.90
1978;DHT22;989;53.016;8.346;2022-10-30T16:15:06;16.00;99.90
1978;DHT22;989;53.016;8.346;2022-10-30T16:17:34;16.10;99.90
1978;DHT22;989;53.016;8.346;2022-10-30T16:20:01;16.10;99.90
1978;DHT22;989;53.016;8.346;2022-10-30T16:22:33;16.10;99.90
1978;DHT22;989;53.016;8.346;2022-10-30T16:25:01;16.20;99.90
1978;DHT22;989;53.016;8.346;2022-10-30T16:27:31;16.20;99.90
1978;DHT22;989;53.016;8.346;2022-10-30T16:29:58;16.20;99.90
1978;DHT22;989;53.016;8.346;2022-10-30T16:32:28;16.20;99.90
1978;DHT22;989;53.016;8.346;2022-10-30T16:34:57;16.20;99.90
1978;DHT22;989;53.016;8.346;2022-10-30T16:37:32;16.20;99.90
1978;DHT22;989;53.016;8.346;2022-10-30T16:40:14;16.10;99.90
1978;DHT22;989;53.016;8.346;2022-10-30T16:42:57;16.00;99.90
1978;DHT22;989;53.016;8.346;2022-10-30T16:45:44;15.80;99.90
1978;DHT22;989;53.016;8.346;2022-10-30T16:48:24;15.70;99.90
1978;DHT22;989;53.016;8.346;2022-10-30T16:50:57;15.60;99.90
1978;DHT22;989;53.016;8.346;2022-10-30T16:53:25;15.50;99.90
1978;DHT22;989;53.016;8.346;2022-10-30T16:55:52;15.40;99.90
1978;DHT22;989;53.016;8.346;2022-10-30T16:58:21;15.40;99.90
1978;DHT22;989;53.016;8.346;2022-10-30T17:01:15;15.30;99.90
1978;DHT22;989;53.016;8.346;2022-10-30T17:03:41;15.10;99.90
1978;DHT22;989;53.016;8.346;2022-10-30T17:06:28;15.10;99.90
1978;DHT22;989;53.016;8.346;2022-10-30T17:09:09;15.10;99.90
1978;DHT22;989;53.016;8.346;2022-10-30T17:11:58;15.10;99.90
1978;DHT22;989;53.016;8.346;2022-10-30T17:19:47;15.10;99.90
1978;DHT22;989;53.016;8.346;2022-10-30T17:22:19;15.10;99.90
1978;DHT22;989;53.016;8.346;2022-10-30T17:24:45;15.00;99.90
1978;DHT22;989;53.016;8.346;2022-10-30T17:27:25;14.90;99.90
1978;DHT22;989;53.016;8.346;2022-10-30T17:33:01;14.50;99.90
1978;DHT22;989;53.016;8.346;2022-10-30T17:35:28;14.40;99.90
1978;DHT22;989;53.016;8.346;2022-10-30T17:37:54;14.60;99.90
1978;DHT22;989;53.016;8.346;2022-10-30T17:40:20;14.50;99.90
1978;DHT22;989;53.016;8.346;2022-10-30T17:42:45;14.40;99.90
1978;DHT22;989;53.016;8.346;2022-10-30T17:45:15;14.30;99.90
1978;DHT22;989;53.016;8.346;2022-10-30T17:47:41;14.10;99.90
1978;DHT22;989;53.016;8.346;2022-10-30T17:50:07;14.00;99.90
1978;DHT22;989;53.016;8.346;2022-10-30T17:52:33;13.90;99.90
1978;DHT22;989;53.016;8.346;2022-10-30T17:55:00;13.90;99.90
1978;DHT22;989;53.016;8.346;2022-10-30T17:57:26;13.80;99.90
1978;DHT22;989;53.016;8.346;2022-10-30T17:59:53;13.70;99.90
1978;DHT22;989;53.016;8.346;2022-10-30T18:02:21;13.70;99.90
1978;DHT22;989;53.016;8.346;2022-10-30T18:04:48;13.60;99.90
1978;DHT22;989;53.016;8.346;2022-10-30T18:07:15;13.70;99.90
1978;DHT22;989;53.016;8.346;2022-10-30T18:09:41;13.80;99.90
1978;DHT22;989;53.016;8.346;2022-10-30T18:12:14;13.90;99.90
1978;DHT22;989;53.016;8.346;2022-10-30T18:14:40;13.90;99.90
1978;DHT22;989;53.016;8.346;2022-10-30T18:17:08;13.80;99.90
1978;DHT22;989;53.016;8.346;2022-10-30T18:19:34;13.70;99.90
1978;DHT22;989;53.016;8.346;2022-10-30T18:22:00;13.70;99.90
1978;DHT22;989;53.016;8.346;2022-10-30T18:24:26;13.60;99.90
1978;DHT22;989;53.016;8.346;2022-10-30T18:26:51;13.60;99.90
1978;DHT22;989;53.016;8.346;2022-10-30T18:29:19;13.60;99.90
1978;DHT22;989;53.016;8.346;2022-10-30T18:31:45;13.50;99.90
1978;DHT22;989;53.016;8.346;2022-10-30T18:34:15;13.60;99.90
1978;DHT22;989;53.016;8.346;2022-10-30T18:36:44;13.60;99.90
1978;DHT22;989;53.016;8.346;2022-10-30T18:39:09;13.60;99.90